sensor_id;sensor_type;location;lat;lon;timestamp;pressure;altitude;pressure_sealevel;temperature;humidity
46876;BME280;32866;50.160;14.768;2023-09-19T00:00:47;98761.19;;;15.79;100.00
46876;BME280;32866;50.160;14.768;2023-09-19T00:03:14;98768.38;;;15.71;100.00
46876;BME280;32866;50.160;14.768;2023-09-19T00:05:41;98785.47;;;15.75;100.00
46876;BME280;32866;50.160;14.768;2023-09-19T00:08:10;98791.88;;;15.87;100.00
46876;BME280;32866;50.160;14.768;2023-09-19T00:10:36;98766.91;;;15.49;100.00
46876;BME280;32866;50.160;14.768;2023-09-19T00:13:03;98803.94;;;15.84;100.00
46876;BME280;32866;50.160;14.768;2023-09-19T00:15:44;98803.16;;;15.83;100.00
46876;BME280;32866;50.160;14.768;2023-09-19T00:18:19;98794.06;;;15.77;100.00
46876;BME280;32866;50.160;14.768;2023-09-19T00:20:46;98745.41;;;15.33;100.00
46876;BME280;32866;50.160;14.768;2023-09-19T00:23:13;98770.50;;;15.35;100.00
46876;BME280;32866;50.160;14.768;2023-09-19T00:25:39;98763.00;;;15.15;100.00
46876;BME280;32866;50.160;14.768;2023-09-19T00:28:06;98803.22;;;15.42;100.00
46876;BME280;32866;50.160;14.768;2023-09-19T00:30:34;98804.63;;;15.32;100.00
46876;BME280;32866;50.160;14.768;2023-09-19T00:33:00;98812.59;;;15.30;100.00
46876;BME280;32866;50.160;14.768;2023-09-19T00:35:27;98813.59;;;15.27;100.00
46876;BME280;32866;50.160;14.768;2023-09-19T00:37:53;98807.72;;;15.19;100.00
46876;BME280;32866;50.160;14.768;2023-09-19T00:40:20;98811.94;;;15.14;100.00
46876;BME280;32866;50.160;14.768;2023-09-19T00:42:48;98806.63;;;15.11;100.00
46876;BME280;32866;50.160;14.768;2023-09-19T00:45:16;98823.66;;;15.09;100.00
46876;BME280;32866;50.160;14.768;2023-09-19T00:47:50;98792.47;;;14.82;100.00
46876;BME280;32866;50.160;14.768;2023-09-19T00:50:18;98821.31;;;15.02;100.00
46876;BME280;32866;50.160;14.768;2023-09-19T00:52:48;98822.00;;;14.97;100.00
46876;BME280;32866;50.160;14.768;2023-09-19T00:55:16;98768.59;;;14.59;100.00
46876;BME280;32866;50.160;14.768;2023-09-19T00:57:45;98825.16;;;14.90;100.00
46876;BME280;32866;50.160;14.768;2023-09-19T01:00:13;98820.88;;;14.89;100.00
46876;BME280;32866;50.160;14.768;2023-09-19T01:02:42;98808.06;;;14.86;100.00
46876;BME280;32866;50.160;14.768;2023-09-19T01:05:09;98810.69;;;14.95;100.00
46876;BME280;32866;50.160;14.768;2023-09-19T01:07:36;98814.91;;;14.90;100.00
46876;BME280;32866;50.160;14.768;2023-09-19T01:10:03;98770.88;;;14.60;100.00
46876;BME280;32866;50.160;14.768;2023-09-19T01:18:21;98779.88;;;14.61;100.00
46876;BME280;32866;50.160;14.768;2023-09-19T01:21:01;98803.50;;;14.82;100.00
46876;BME280;32866;50.160;14.768;2023-09-19T01:27:05;98772.94;;;14.51;100.00
46876;BME280;32866;50.160;14.768;2023-09-19T01:29:49;98806.41;;;14.73;100.00
46876;BME280;32866;50.160;14.768;2023-09-19T01:32:21;98803.53;;;14.68;100.00
46876;BME280;32866;50.160;14.768;2023-09-19T01:34:48;98800.50;;;14.65;100.00
46876;BME280;32866;50.160;14.768;2023-09-19T01:37:17;98776.56;;;14.57;100.00
46876;BME280;32866;50.160;14.768;2023-09-19T01:39:47;98776.97;;;14.50;100.00
46876;BME280;32866;50.160;14.768;2023-09-19T01:45:03;98787.56;;;14.72;100.00
46876;BME280;32866;50.160;14.768;2023-09-19T01:47:38;98782.56;;;14.55;100.00
46876;BME280;32866;50.160;14.768;2023-09-19T01:50:41;98788.31;;;14.72;100.00
46876;BME280;32866;50.160;14.768;2023-09-19T01:53:26;98788.31;;;14.72;100.00
46876;BME280;32866;50.160;14.768;2023-09-19T01:55:57;98791.00;;;14.67;100.00
46876;BME280;32866;50.160;14.768;2023-09-19T01:58:33;98783.97;;;14.65;100.00
46876;BME280;32866;50.160;14.768;2023-09-19T02:01:00;98796.06;;;14.68;100.00
46876;BME280;32866;50.160;14.768;2023-09-19T02:03:28;98794.25;;;14.65;100.00
46876;BME280;32866;50.160;14.768;2023-09-19T02:05:54;98749.50;;;14.40;100.00
46876;BME280;32866;50.160;14.768;2023-09-19T02:08:22;98783.34;;;14.76;100.00
46876;BME280;32866;50.160;14.768;2023-09-19T02:10:51;98749.69;;;14.52;100.00
46876;BME280;32866;50.160;14.768;2023-09-19T02:13:19;98773.03;;;14.92;100.00
46876;BME280;32866;50.160;14.768;2023-09-19T02:15:46;98776.28;;;15.11;100.00
46876;BME280;32866;50.160;14.768;2023-09-19T02:18:13;98778.00;;;15.29;100.00
46876;BME280;32866;50.160;14.768;2023-09-19T02:20:39;98780.06;;;15.34;100.00
46876;BME280;32866;50.160;14.768;2023-09-19T02:23:05;98779.09;;;15.37;100.00
46876;BME280;32866;50.160;14.768;2023-09-19T02:25:31;98737.59;;;15.05;100.00
46876;BME280;32866;50.160;14.768;2023-09-19T02:27:58;98781.34;;;15.38;100.00
46876;BME280;32866;50.160;14.768;2023-09-19T02:30:29;98723.19;;;15.21;100.00
46876;BME280;32866;50.160;14.768;2023-09-19T02:32:56;98773.84;;;15.65;100.00
46876;BME280;32866;50.160;14.768;2023-09-19T02:35:22;98777.59;;;15.62;100.00
46876;BME280;32866;50.160;14.768;2023-09-19T02:37:48;98776.41;;;15.69;100.00
46876;BME280;32866;50.160;14.768;2023-09-19T02:40:15;98777.13;;;15.69;100.00
46876;BME280;32866;50.160;14.768;2023-09-19T02:42:55;98776.97;;;15.52;100.00
46876;BME280;32866;50.160;14.768;2023-09-19T02:45:21;98786.44;;;15.46;100.00
46876;BME280;32866;50.160;14.768;2023-09-19T02:47:49;98782.44;;;15.47;100.00
46876;BME280;32866;50.160;14.768;2023-09-19T02:50:16;98783.69;;;15.46;100.00
46876;BME280;32866;50.160;14.768;2023-09-19T02:52:43;98784.16;;;15.44;100.00
46876;BME280;32866;50.160;14.768;2023-09-19T02:55:11;98737.25;;;14.97;100.00
46876;BME280;32866;50.160;14.768;2023-09-19T02:57:38;98755.63;;;15.06;100.00
46876;BME280;32866;50.160;14.768;2023-09-19T03:00:09;98785.88;;;15.42;100.00
46876;BME280;32866;50.160;14.768;2023-09-19T03:02:36;98739.44;;;15.14;100.00
46876;BME280;32866;50.160;14.768;2023-09-19T03:05:04;98780.81;;;15.61;100.00
46876;BME280;32866;50.160;14.768;2023-09-19T03:07:31;98774.34;;;15.43;100.00
46876;BME280;32866;50.160;14.768;2023-09-19T03:09:57;98781.25;;;15.53;100.00
46876;BME280;32866;50.160;14.768;2023-09-19T03:12:23;98786.00;;;15.53;100.00
46876;BME280;32866;50.160;14.768;2023-09-19T03:14:48;98789.38;;;15.63;100.00
46876;BME280;32866;50.160;14.768;2023-09-19T03:17:16;98782.44;;;15.73;100.00
46876;BME280;32866;50.160;14.768;2023-09-19T03:19:42;98750.06;;;15.47;100.00
46876;BME280;32866;50.160;14.768;2023-09-19T03:22:07;98775.34;;;15.66;100.00
46876;BME280;32866;50.160;14.768;2023-09-19T03:24:33;98779.63;;;15.67;100.00
46876;BME280;32866;50.160;14.768;2023-09-19T03:27:02;98765.13;;;15.72;100.00
46876;BME280;32866;50.160;14.768;2023-09-19T03:29:29;98784.44;;;15.99;100.00
46876;BME280;32866;50.160;14.768;2023-09-19T03:31:55;98796.09;;;16.08;100.00
46876;BME280;32866;50.160;14.768;2023-09-19T03:34:21;98754.16;;;15.78;100.00
46876;BME280;32866;50.160;14.768;2023-09-19T03:36:47;98799.44;;;16.18;100.00
46876;BME280;32866;50.160;14.768;2023-09-19T03:39:13;98774.41;;;15.95;100.00
46876;BME280;32866;50.160;14.768;2023-09-19T03:41:41;98798.38;;;16.10;100.00
46876;BME280;32866;50.160;14.768;2023-09-19T03:44:07;98786.78;;;16.06;100.00
46876;BME280;32866;50.160;14.768;2023-09-19T03:46:33;98748.72;;;15.89;100.00
46876;BME280;32866;50.160;14.768;2023-09-19T03:49:01;98791.69;;;16.22;100.00
46876;BME280;32866;50.160;14.768;2023-09-19T03:51:27;98796.44;;;16.22;100.00
46876;BME280;32866;50.160;14.768;2023-09-19T03:53:53;98794.66;;;16.19;100.00
46876;BME280;32866;50.160;14.768;2023-09-19T03:56:19;98803.19;;;16.15;100.00
46876;BME280;32866;50.160;14.768;2023-09-19T03:58:45;98798.94;;;16.20;100.00
46876;BME280;32866;50.160;14.768;2023-09-19T04:01:10;98795.66;;;16.16;100.00
46876;BME280;32866;50.160;14.768;2023-09-19T04:03:37;98770.00;;;15.83;100.00
46876;BME280;32866;50.160;14.768;2023-09-19T04:06:16;98808.53;;;16.24;100.00
46876;BME280;32866;50.160;14.768;2023-09-19T04:08:42;98806.19;;;16.17;100.00
46876;BME280;32866;50.160;14.768;2023-09-19T04:11:10;98814.06;;;16.24;100.00
46876;BME280;32866;50.160;14.768;2023-09-19T04:13:36;98819.59;;;16.24;100.00
46876;BME280;32866;50.160;14.768;2023-09-19T04:16:02;98825.34;;;16.21;100.00
46876;BME280;32866;50.160;14.768;2023-09-19T04:18:32;98800.34;;;16.04;100.00
46876;BME280;32866;50.160;14.768;2023-09-19T04:21:02;98805.19;;;16.14;100.00
46876;BME280;32866;50.160;14.768;2023-09-19T04:23:30;98827.66;;;16.28;100.00
46876;BME280;32866;50.160;14.768;2023-09-19T04:25:57;98832.94;;;16.26;100.00
46876;BME280;32866;50.160;14.768;2023-09-19T04:28:23;98844.50;;;16.30;100.00
46876;BME280;32866;50.160;14.768;2023-09-19T04:30:50;98847.75;;;16.28;100.00
46876;BME280;32866;50.160;14.768;2023-09-19T04:33:16;98832.31;;;16.10;100.00
46876;BME280;32866;50.160;14.768;2023-09-19T04:35:42;98852.44;;;16.17;100.00
46876;BME280;32866;50.160;14.768;2023-09-19T04:38:08;98864.75;;;16.16;100.00
46876;BME280;32866;50.160;14.768;2023-09-19T04:40:34;98824.22;;;15.81;100.00
46876;BME280;32866;50.160;14.768;2023-09-19T04:43:00;98864.94;;;16.12;100.00
46876;BME280;32866;50.160;14.768;2023-09-19T04:45:27;98870.09;;;15.99;100.00
46876;BME280;32866;50.160;14.768;2023-09-19T04:47:53;98881.25;;;16.10;100.00
46876;BME280;32866;50.160;14.768;2023-09-19T04:50:20;98878.56;;;16.16;100.00
46876;BME280;32866;50.160;14.768;2023-09-19T04:52:50;98871.53;;;16.14;100.00
46876;BME280;32866;50.160;14.768;2023-09-19T04:55:17;98854.53;;;15.95;100.00
46876;BME280;32866;50.160;14.768;2023-09-19T04:57:51;98879.28;;;16.10;100.00
46876;BME280;32866;50.160;14.768;2023-09-19T05:00:20;98882.34;;;16.18;100.00
46876;BME280;32866;50.160;14.768;2023-09-19T05:02:54;98893.09;;;16.10;100.00
46876;BME280;32866;50.160;14.768;2023-09-19T05:05:20;98891.84;;;16.11;100.00
46876;BME280;32866;50.160;14.768;2023-09-19T05:07:48;98896.34;;;16.09;100.00
46876;BME280;32866;50.160;14.768;2023-09-19T05:10:14;98899.09;;;16.09;100.00
46876;BME280;32866;50.160;14.768;2023-09-19T05:12:41;98880.13;;;15.96;100.00
46876;BME280;32866;50.160;14.768;2023-09-19T05:15:07;98897.25;;;16.00;100.00
46876;BME280;32866;50.160;14.768;2023-09-19T05:17:34;98895.03;;;16.04;100.00
46876;BME280;32866;50.160;14.768;2023-09-19T05:20:01;98898.34;;;16.08;100.00
46876;BME280;32866;50.160;14.768;2023-09-19T05:22:41;98846.56;;;15.77;100.00
46876;BME280;32866;50.160;14.768;2023-09-19T05:25:11;98866.94;;;15.85;100.00
46876;BME280;32866;50.160;14.768;2023-09-19T05:27:43;98853.66;;;15.84;100.00
46876;BME280;32866;50.160;14.768;2023-09-19T05:30:09;98902.25;;;16.22;100.00
46876;BME280;32866;50.160;14.768;2023-09-19T05:32:35;98857.28;;;15.95;100.00
46876;BME280;32866;50.160;14.768;2023-09-19T05:35:02;98902.78;;;16.26;100.00
46876;BME280;32866;50.160;14.768;2023-09-19T05:37:28;98900.53;;;16.30;100.00
46876;BME280;32866;50.160;14.768;2023-09-19T05:39:55;98902.28;;;16.28;100.00
46876;BME280;32866;50.160;14.768;2023-09-19T05:42:21;98906.06;;;16.30;100.00
46876;BME280;32866;50.160;14.768;2023-09-19T05:47:23;98904.44;;;16.44;100.00
46876;BME280;32866;50.160;14.768;2023-09-19T05:49:50;98863.56;;;16.22;100.00
46876;BME280;32866;50.160;14.768;2023-09-19T05:52:18;98870.19;;;16.36;100.00
46876;BME280;32866;50.160;14.768;2023-09-19T05:54:44;98884.06;;;16.42;100.00
46876;BME280;32866;50.160;14.768;2023-09-19T05:57:10;98903.59;;;16.64;100.00
46876;BME280;32866;50.160;14.768;2023-09-19T05:59:38;98868.38;;;16.27;100.00
46876;BME280;32866;50.160;14.768;2023-09-19T06:02:05;98917.69;;;16.66;100.00
46876;BME280;32866;50.160;14.768;2023-09-19T06:04:32;98917.97;;;16.68;100.00
46876;BME280;32866;50.160;14.768;2023-09-19T06:06:58;98909.91;;;16.70;100.00
46876;BME280;32866;50.160;14.768;2023-09-19T06:09:24;98933.56;;;16.72;100.00
46876;BME280;32866;50.160;14.768;2023-09-19T06:11:50;98934.88;;;16.76;100.00
46876;BME280;32866;50.160;14.768;2023-09-19T06:14:16;98923.03;;;16.76;100.00
46876;BME280;32866;50.160;14.768;2023-09-19T06:16:43;98885.13;;;16.50;100.00
46876;BME280;32866;50.160;14.768;2023-09-19T06:19:09;98909.84;;;16.59;100.00
46876;BME280;32866;50.160;14.768;2023-09-19T06:21:36;98947.59;;;16.94;100.00
46876;BME280;32866;50.160;14.768;2023-09-19T06:24:02;98952.44;;;16.99;100.00
46876;BME280;32866;50.160;14.768;2023-09-19T06:26:28;98950.69;;;17.02;100.00
46876;BME280;32866;50.160;14.768;2023-09-19T06:28:55;98911.97;;;16.76;100.00
46876;BME280;32866;50.160;14.768;2023-09-19T06:31:22;98964.38;;;17.22;100.00
46876;BME280;32866;50.160;14.768;2023-09-19T06:33:52;98967.97;;;17.29;100.00
46876;BME280;32866;50.160;14.768;2023-09-19T06:36:18;98976.28;;;17.34;100.00
46876;BME280;32866;50.160;14.768;2023-09-19T06:38:45;98926.50;;;16.97;100.00
46876;BME280;32866;50.160;14.768;2023-09-19T06:41:11;98976.09;;;17.43;100.00
46876;BME280;32866;50.160;14.768;2023-09-19T06:43:39;98976.63;;;17.48;100.00
46876;BME280;32866;50.160;14.768;2023-09-19T06:46:05;98949.00;;;17.16;100.00
46876;BME280;32866;50.160;14.768;2023-09-19T06:48:33;98935.78;;;17.31;100.00
46876;BME280;32866;50.160;14.768;2023-09-19T06:50:59;98973.25;;;17.75;100.00
46876;BME280;32866;50.160;14.768;2023-09-19T06:53:32;98991.00;;;17.95;100.00
46876;BME280;32866;50.160;14.768;2023-09-19T06:55:58;98975.34;;;17.92;100.00
46876;BME280;32866;50.160;14.768;2023-09-19T06:58:24;98988.53;;;18.20;100.00
46876;BME280;32866;50.160;14.768;2023-09-19T07:00:50;98985.00;;;18.25;100.00
46876;BME280;32866;50.160;14.768;2023-09-19T07:03:16;98991.38;;;18.42;100.00
46876;BME280;32866;50.160;14.768;2023-09-19T07:05:48;98963.31;;;18.17;100.00
46876;BME280;32866;50.160;14.768;2023-09-19T07:08:14;98956.03;;;18.26;100.00
46876;BME280;32866;50.160;14.768;2023-09-19T07:10:41;98995.16;;;18.62;100.00
46876;BME280;32866;50.160;14.768;2023-09-19T07:13:14;98988.13;;;18.72;100.00
46876;BME280;32866;50.160;14.768;2023-09-19T07:15:43;98953.81;;;18.69;100.00
46876;BME280;32866;50.160;14.768;2023-09-19T07:18:13;99010.06;;;19.26;100.00
46876;BME280;32866;50.160;14.768;2023-09-19T07:20:41;98974.75;;;19.21;100.00
46876;BME280;32866;50.160;14.768;2023-09-19T07:23:11;98995.41;;;19.43;100.00
46876;BME280;32866;50.160;14.768;2023-09-19T07:25:40;98980.25;;;19.44;100.00
46876;BME280;32866;50.160;14.768;2023-09-19T07:28:06;99017.53;;;19.88;100.00
46876;BME280;32866;50.160;14.768;2023-09-19T07:30:36;99015.28;;;19.75;100.00
46876;BME280;32866;50.160;14.768;2023-09-19T07:33:03;99005.00;;;20.59;100.00
46876;BME280;32866;50.160;14.768;2023-09-19T07:35:31;99021.56;;;21.42;100.00
46876;BME280;32866;50.160;14.768;2023-09-19T07:37:57;98972.09;;;21.24;100.00
46876;BME280;32866;50.160;14.768;2023-09-19T07:40:24;99025.34;;;21.70;100.00
46876;BME280;32866;50.160;14.768;2023-09-19T07:42:55;99020.63;;;21.83;100.00
46876;BME280;32866;50.160;14.768;2023-09-19T07:45:21;99021.22;;;21.52;100.00
46876;BME280;32866;50.160;14.768;2023-09-19T07:47:49;99030.25;;;21.33;100.00
46876;BME280;32866;50.160;14.768;2023-09-19T07:50:17;99021.50;;;21.23;100.00
46876;BME280;32866;50.160;14.768;2023-09-19T07:52:47;99028.69;;;21.38;100.00
46876;BME280;32866;50.160;14.768;2023-09-19T07:55:13;99028.91;;;20.85;100.00
46876;BME280;32866;50.160;14.768;2023-09-19T07:57:43;98998.69;;;20.17;100.00
46876;BME280;32866;50.160;14.768;2023-09-19T08:00:10;99043.78;;;20.51;100.00
46876;BME280;32866;50.160;14.768;2023-09-19T08:02:36;99045.00;;;20.56;100.00
46876;BME280;32866;50.160;14.768;2023-09-19T08:05:06;99046.88;;;20.84;100.00
46876;BME280;32866;50.160;14.768;2023-09-19T08:07:36;99019.44;;;20.57;100.00
46876;BME280;32866;50.160;14.768;2023-09-19T08:10:04;99049.56;;;20.65;100.00
46876;BME280;32866;50.160;14.768;2023-09-19T08:12:30;99070.09;;;20.50;100.00
46876;BME280;32866;50.160;14.768;2023-09-19T08:14:56;99044.53;;;20.52;100.00
46876;BME280;32866;50.160;14.768;2023-09-19T08:17:22;99056.75;;;20.37;100.00
46876;BME280;32866;50.160;14.768;2023-09-19T08:19:49;99034.16;;;19.99;100.00
46876;BME280;32866;50.160;14.768;2023-09-19T08:22:19;99047.22;;;20.16;100.00
46876;BME280;32866;50.160;14.768;2023-09-19T08:24:45;99030.69;;;19.82;100.00
46876;BME280;32866;50.160;14.768;2023-09-19T08:27:13;99073.50;;;20.26;100.00
46876;BME280;32866;50.160;14.768;2023-09-19T08:29:39;99071.94;;;20.31;100.00
46876;BME280;32866;50.160;14.768;2023-09-19T08:32:06;99074.09;;;20.08;100.00
46876;BME280;32866;50.160;14.768;2023-09-19T08:34:31;99040.00;;;19.90;100.00
46876;BME280;32866;50.160;14.768;2023-09-19T08:36:59;99058.41;;;20.05;100.00
46876;BME280;32866;50.160;14.768;2023-09-19T08:39:25;99080.00;;;20.34;100.00
46876;BME280;32866;50.160;14.768;2023-09-19T08:42:01;99080.56;;;20.27;100.00
46876;BME280;32866;50.160;14.768;2023-09-19T08:44:28;99046.84;;;19.89;100.00
46876;BME280;32866;50.160;14.768;2023-09-19T08:47:26;99083.00;;;20.48;100.00
46876;BME280;32866;50.160;14.768;2023-09-19T08:50:02;99065.22;;;20.62;100.00
46876;BME280;32866;50.160;14.768;2023-09-19T08:52:37;99035.91;;;20.55;100.00
46876;BME280;32866;50.160;14.768;2023-09-19T08:55:06;99076.25;;;21.45;100.00
46876;BME280;32866;50.160;14.768;2023-09-19T08:57:34;99035.75;;;21.69;100.00
46876;BME280;32866;50.160;14.768;2023-09-19T09:00:04;99041.78;;;21.98;100.00
46876;BME280;32866;50.160;14.768;2023-09-19T09:02:40;99097.75;;;22.24;100.00
46876;BME280;32866;50.160;14.768;2023-09-19T09:05:10;99090.66;;;22.23;100.00
46876;BME280;32866;50.160;14.768;2023-09-19T09:07:40;99095.56;;;22.17;100.00
46876;BME280;32866;50.160;14.768;2023-09-19T09:10:07;99102.31;;;21.78;100.00
46876;BME280;32866;50.160;14.768;2023-09-19T09:12:35;99090.22;;;21.70;100.00
46876;BME280;32866;50.160;14.768;2023-09-19T09:15:03;99083.03;;;21.80;100.00
46876;BME280;32866;50.160;14.768;2023-09-19T09:17:30;99093.72;;;21.76;100.00
46876;BME280;32866;50.160;14.768;2023-09-19T09:19:56;99100.28;;;21.54;100.00
46876;BME280;32866;50.160;14.768;2023-09-19T09:22:22;99096.72;;;21.78;100.00
46876;BME280;32866;50.160;14.768;2023-09-19T09:24:53;99071.34;;;21.27;100.00
46876;BME280;32866;50.160;14.768;2023-09-19T09:27:20;99084.13;;;21.17;100.00
46876;BME280;32866;50.160;14.768;2023-09-19T09:29:50;99104.00;;;21.26;100.00
46876;BME280;32866;50.160;14.768;2023-09-19T09:32:27;99116.72;;;21.22;100.00
46876;BME280;32866;50.160;14.768;2023-09-19T09:34:56;99114.28;;;21.48;100.00
46876;BME280;32866;50.160;14.768;2023-09-19T09:37:24;99110.66;;;21.54;100.00
46876;BME280;32866;50.160;14.768;2023-09-19T09:39:57;99104.69;;;21.38;100.00
46876;BME280;32866;50.160;14.768;2023-09-19T09:42:32;99103.81;;;21.55;100.00
46876;BME280;32866;50.160;14.768;2023-09-19T09:45:18;99089.59;;;21.83;100.00
46876;BME280;32866;50.160;14.768;2023-09-19T09:48:03;99099.63;;;21.92;100.00
46876;BME280;32866;50.160;14.768;2023-09-19T09:50:34;99094.34;;;21.88;100.00
46876;BME280;32866;50.160;14.768;2023-09-19T09:56:22;99103.00;;;21.60;100.00
46876;BME280;32866;50.160;14.768;2023-09-19T10:01:14;99100.53;;;21.20;100.00
46876;BME280;32866;50.160;14.768;2023-09-19T10:03:42;99089.41;;;21.15;100.00
46876;BME280;32866;50.160;14.768;2023-09-19T10:06:17;99104.78;;;20.91;100.00
46876;BME280;32866;50.160;14.768;2023-09-19T10:11:46;99070.03;;;21.03;100.00
46876;BME280;32866;50.160;14.768;2023-09-19T10:14:15;99097.13;;;21.63;100.00
46876;BME280;32866;50.160;14.768;2023-09-19T10:16:48;99069.56;;;21.84;100.00
46876;BME280;32866;50.160;14.768;2023-09-19T10:19:29;99077.13;;;22.52;100.00
46876;BME280;32866;50.160;14.768;2023-09-19T10:21:56;99100.28;;;23.18;100.00
46876;BME280;32866;50.160;14.768;2023-09-19T10:24:25;99103.59;;;23.35;100.00
46876;BME280;32866;50.160;14.768;2023-09-19T10:26:53;99101.78;;;23.64;100.00
46876;BME280;32866;50.160;14.768;2023-09-19T10:29:24;99067.22;;;23.94;100.00
46876;BME280;32866;50.160;14.768;2023-09-19T10:31:54;99102.91;;;24.01;100.00
46876;BME280;32866;50.160;14.768;2023-09-19T10:34:25;99067.34;;;23.43;100.00
46876;BME280;32866;50.160;14.768;2023-09-19T10:36:52;99059.78;;;23.24;100.00
46876;BME280;32866;50.160;14.768;2023-09-19T10:39:19;99108.00;;;23.44;100.00
46876;BME280;32866;50.160;14.768;2023-09-19T10:41:50;99106.47;;;23.29;100.00
46876;BME280;32866;50.160;14.768;2023-09-19T10:44:25;99101.34;;;23.47;100.00
46876;BME280;32866;50.160;14.768;2023-09-19T10:46:52;99106.13;;;23.65;100.00
46876;BME280;32866;50.160;14.768;2023-09-19T10:49:20;99100.78;;;23.94;100.00
46876;BME280;32866;50.160;14.768;2023-09-19T10:51:49;99098.31;;;23.91;100.00
46876;BME280;32866;50.160;14.768;2023-09-19T10:54:18;99098.69;;;23.55;100.00
46876;BME280;32866;50.160;14.768;2023-09-19T10:56:50;99098.63;;;23.28;100.00
46876;BME280;32866;50.160;14.768;2023-09-19T10:59:18;99097.91;;;23.08;100.00
46876;BME280;32866;50.160;14.768;2023-09-19T11:04:33;99104.84;;;23.66;100.00
46876;BME280;32866;50.160;14.768;2023-09-19T11:07:07;99094.31;;;23.86;100.00
46876;BME280;32866;50.160;14.768;2023-09-19T11:09:52;99092.72;;;24.04;100.00
46876;BME280;32866;50.160;14.768;2023-09-19T11:14:52;99071.03;;;23.64;99.35
46876;BME280;32866;50.160;14.768;2023-09-19T11:25:41;99080.25;;;26.44;92.11
46876;BME280;32866;50.160;14.768;2023-09-19T11:30:40;99094.91;;;25.14;77.68
46876;BME280;32866;50.160;14.768;2023-09-19T11:43:46;99087.63;;;23.17;86.66
46876;BME280;32866;50.160;14.768;2023-09-19T11:46:12;99081.22;;;23.35;86.17
46876;BME280;32866;50.160;14.768;2023-09-19T11:48:43;99073.25;;;24.94;80.07
46876;BME280;32866;50.160;14.768;2023-09-19T11:51:14;99076.28;;;26.99;70.49
46876;BME280;32866;50.160;14.768;2023-09-19T11:53:50;99077.34;;;26.65;63.59
46876;BME280;32866;50.160;14.768;2023-09-19T11:56:17;99076.47;;;25.19;68.15
46876;BME280;32866;50.160;14.768;2023-09-19T11:58:44;99049.31;;;23.70;69.22
46876;BME280;32866;50.160;14.768;2023-09-19T12:01:14;99067.44;;;22.91;74.00
46876;BME280;32866;50.160;14.768;2023-09-19T12:03:46;99050.88;;;24.46;69.25
46876;BME280;32866;50.160;14.768;2023-09-19T12:06:15;99082.50;;;26.46;62.86
46876;BME280;32866;50.160;14.768;2023-09-19T12:08:42;99078.94;;;27.51;53.25
46876;BME280;32866;50.160;14.768;2023-09-19T12:11:16;99083.78;;;27.74;53.29
46876;BME280;32866;50.160;14.768;2023-09-19T12:13:44;99067.47;;;27.65;53.82
46876;BME280;32866;50.160;14.768;2023-09-19T12:16:20;99059.78;;;27.81;50.65
46876;BME280;32866;50.160;14.768;2023-09-19T12:18:50;99089.53;;;28.07;53.14
46876;BME280;32866;50.160;14.768;2023-09-19T12:21:30;99076.03;;;28.61;49.43
46876;BME280;32866;50.160;14.768;2023-09-19T12:24:13;99076.19;;;28.96;48.13
46876;BME280;32866;50.160;14.768;2023-09-19T12:26:41;99067.94;;;29.16;44.85
46876;BME280;32866;50.160;14.768;2023-09-19T12:29:18;99078.53;;;29.33;46.01
46876;BME280;32866;50.160;14.768;2023-09-19T12:31:54;99059.88;;;29.20;43.52
46876;BME280;32866;50.160;14.768;2023-09-19T12:34:28;99061.66;;;29.50;43.66
46876;BME280;32866;50.160;14.768;2023-09-19T12:37:07;99072.50;;;30.14;42.48
46876;BME280;32866;50.160;14.768;2023-09-19T12:39:47;99076.69;;;30.58;41.60
46876;BME280;32866;50.160;14.768;2023-09-19T12:42:20;99076.28;;;30.26;40.23
46876;BME280;32866;50.160;14.768;2023-09-19T12:44:50;99050.78;;;30.34;37.67
46876;BME280;32866;50.160;14.768;2023-09-19T12:47:23;99080.47;;;30.08;39.60
46876;BME280;32866;50.160;14.768;2023-09-19T12:55:23;99042.00;;;30.12;37.93
46876;BME280;32866;50.160;14.768;2023-09-19T13:03:15;99059.31;;;29.14;39.28
46876;BME280;32866;50.160;14.768;2023-09-19T13:05:52;99068.91;;;28.85;41.80
46876;BME280;32866;50.160;14.768;2023-09-19T13:08:27;99050.41;;;29.00;40.03
46876;BME280;32866;50.160;14.768;2023-09-19T13:11:12;99053.41;;;28.69;41.58
46876;BME280;32866;50.160;14.768;2023-09-19T13:13:43;99062.00;;;28.46;42.34
46876;BME280;32866;50.160;14.768;2023-09-19T13:16:11;99065.38;;;28.04;41.76
46876;BME280;32866;50.160;14.768;2023-09-19T13:19:34;99063.03;;;27.38;42.56
46876;BME280;32866;50.160;14.768;2023-09-19T13:21:35;99018.31;;;26.50;44.37
46876;BME280;32866;50.160;14.768;2023-09-19T13:24:24;99050.34;;;26.62;44.46
46876;BME280;32866;50.160;14.768;2023-09-19T13:26:54;99015.53;;;26.65;43.81
46876;BME280;32866;50.160;14.768;2023-09-19T13:29:20;99046.88;;;26.85;43.49
46876;BME280;32866;50.160;14.768;2023-09-19T13:31:50;99045.19;;;25.86;45.50
46876;BME280;32866;50.160;14.768;2023-09-19T13:34:19;99047.63;;;25.11;47.97
46876;BME280;32866;50.160;14.768;2023-09-19T13:36:45;99040.63;;;24.83;50.46
46876;BME280;32866;50.160;14.768;2023-09-19T13:39:17;99042.94;;;24.71;49.67
46876;BME280;32866;50.160;14.768;2023-09-19T13:41:47;99036.25;;;25.16;48.79
46876;BME280;32866;50.160;14.768;2023-09-19T13:44:14;99042.91;;;25.84;50.12
46876;BME280;32866;50.160;14.768;2023-09-19T13:46:40;99005.00;;;26.51;45.66
46876;BME280;32866;50.160;14.768;2023-09-19T13:49:09;99023.81;;;27.17;43.97
46876;BME280;32866;50.160;14.768;2023-09-19T13:51:35;99009.59;;;27.38;42.89